Time;durP1;ratioP1;P1;durP2;ratioP2;P2;SDS_P1;SDS_P2;PMS_P1;PMS_P2;Temp;Humidity;BMP_temperature;BMP_pressure;BME280_temperature;BME280_humidity;BME280_pressure;Samples;Min_cycle;Max_cycle;Signal;HPM_P1;HPM_P2
2023/10/13 00:01:20;;;;;;;31.80;22.95;;;17.10;99.90;;;;;;5111833;28;20365;-68
2023/10/13 00:03:45;;;;;;;32.00;23.10;;;17.10;99.90;;;;;;5110985;28;20028;-68
2023/10/13 00:06:11;;;;;;;34.40;23.70;;;17.20;99.90;;;;;;5111827;28;20164;-68
2023/10/13 00:08:36;;;;;;;38.55;24.02;;;17.10;99.90;;;;;;5111675;28;20480;-68
2023/10/13 00:11:03;;;;;;;36.33;23.95;;;17.00;99.90;;;;;;5111631;28;20213;-68
2023/10/13 00:13:31;;;;;;;36.72;23.52;;;17.10;99.90;;;;;;5111193;28;20462;-67
2023/10/13 00:15:57;;;;;;;37.35;23.92;;;17.10;99.90;;;;;;5111278;28;20036;-67
2023/10/13 00:18:27;;;;;;;36.20;23.08;;;17.10;99.90;;;;;;5111503;28;20036;-68
2023/10/13 00:20:56;;;;;;;38.00;23.65;;;17.70;99.90;;;;;;5111136;28;20406;-67
2023/10/13 00:23:23;;;;;;;36.55;23.27;;;17.10;99.90;;;;;;5110234;28;20020;-67
2023/10/13 00:25:50;;;;;;;35.08;24.20;;;17.10;99.90;;;;;;5111123;28;20097;-68
2023/10/13 00:28:23;;;;;;;30.88;22.88;;;17.10;99.90;;;;;;5111391;28;20020;-68
2023/10/13 00:30:52;;;;;;;36.67;22.70;;;17.00;99.90;;;;;;5111323;28;20032;-67
2023/10/13 00:33:22;;;;;;;38.05;22.38;;;17.00;99.90;;;;;;5111222;28;20032;-68
2023/10/13 00:35:51;;;;;;;35.33;22.80;;;17.00;99.90;;;;;;5111134;28;20047;-67
2023/10/13 00:38:18;;;;;;;36.40;22.15;;;17.00;99.90;;;;;;5110804;28;20038;-67
2023/10/13 00:40:51;;;;;;;37.05;22.63;;;17.00;99.90;;;;;;5110460;28;20024;-68
2023/10/13 00:45:57;;;;;;;35.35;21.95;;;17.00;99.90;;;;;;5110290;28;20034;-68
2023/10/13 00:48:34;;;;;;;29.50;21.65;;;17.00;99.90;;;;;;5110520;28;20470;-68
2023/10/13 00:51:07;;;;;;;35.47;22.75;;;17.00;99.90;;;;;;5110881;28;20077;-68
2023/10/13 00:53:37;;;;;;;30.73;21.38;;;17.00;99.90;;;;;;5106251;28;20043;-68
2023/10/13 00:56:18;;;;;;;36.20;21.02;;;17.00;99.90;;;;;;5097162;28;20115;-68
2023/10/13 00:58:46;;;;;;;32.53;21.23;;;17.10;99.90;;;;;;5096756;28;20519;-68
2023/10/13 01:01:17;;;;;;;32.55;19.80;;;17.10;99.90;;;;;;5096780;28;20478;-68
2023/10/13 01:03:45;;;;;;;27.13;18.90;;;17.10;99.90;;;;;;5096139;28;20024;-68
2023/10/13 01:06:12;;;;;;;31.58;18.65;;;17.00;99.90;;;;;;5096933;28;20032;-68
2023/10/13 01:08:38;;;;;;;30.38;18.60;;;17.10;99.90;;;;;;5096690;28;20123;-68
2023/10/13 01:11:07;;;;;;;28.20;19.02;;;17.00;99.90;;;;;;5096709;28;20063;-69
2023/10/13 01:13:36;;;;;;;29.25;18.55;;;17.00;99.90;;;;;;5096537;28;20039;-68
2023/10/13 01:16:02;;;;;;;30.75;18.25;;;17.00;99.90;;;;;;5096523;28;20032;-68
2023/10/13 01:18:28;;;;;;;32.08;19.45;;;17.00;99.90;;;;;;5096559;28;20189;-68
2023/10/13 01:20:58;;;;;;;30.25;18.77;;;16.90;99.90;;;;;;5096070;28;20488;-68
2023/10/13 01:23:28;;;;;;;30.15;18.23;;;16.90;99.90;;;;;;5095929;28;20059;-68
2023/10/13 01:25:56;;;;;;;31.45;19.38;;;16.90;99.90;;;;;;5095913;28;20027;-68
2023/10/13 01:28:22;;;;;;;28.85;18.67;;;16.90;99.90;;;;;;5096482;28;20028;-68
2023/10/13 01:30:51;;;;;;;29.25;19.10;;;16.90;99.90;;;;;;5096018;28;20381;-68
2023/10/13 01:33:25;;;;;;;33.55;19.13;;;16.90;99.90;;;;;;5096481;28;20459;-68
2023/10/13 01:35:52;;;;;;;32.28;19.25;;;16.90;99.90;;;;;;5096471;28;20043;-68
2023/10/13 01:38:18;;;;;;;30.48;19.88;;;16.80;99.90;;;;;;5096104;28;20032;-68
2023/10/13 01:40:44;;;;;;;30.77;19.35;;;16.80;99.90;;;;;;5096126;28;20035;-68
2023/10/13 01:43:11;;;;;;;29.90;19.80;;;16.80;99.90;;;;;;5095213;28;20058;-68
2023/10/13 01:45:46;;;;;;;30.98;18.65;;;16.80;99.90;;;;;;5096038;28;20026;-68
2023/10/13 01:48:15;;;;;;;31.65;18.65;;;16.80;99.90;;;;;;5095866;28;20454;-68
2023/10/13 01:50:41;;;;;;;29.52;18.65;;;16.80;99.90;;;;;;5096183;28;20020;-68
2023/10/13 01:53:17;;;;;;;30.67;20.05;;;16.80;99.90;;;;;;5096089;28;20020;-68
2023/10/13 01:55:43;;;;;;;30.80;19.67;;;16.80;99.90;;;;;;5095779;28;20482;-68
2023/10/13 01:58:14;;;;;;;29.08;19.15;;;16.80;99.90;;;;;;5095967;28;20063;-68
2023/10/13 02:00:41;;;;;;;28.55;18.20;;;16.80;99.90;;;;;;5095429;28;20027;-68
2023/10/13 02:03:16;;;;;;;28.13;18.38;;;16.90;99.90;;;;;;5094809;28;20062;-68
2023/10/13 02:05:46;;;;;;;27.83;18.63;;;16.80;99.90;;;;;;5094571;28;20036;-68
2023/10/13 02:08:29;;;;;;;28.02;18.05;;;16.90;99.90;;;;;;5095607;28;20085;-68
2023/10/13 02:10:56;;;;;;;26.92;18.35;;;16.90;99.90;;;;;;5095066;28;20027;-68
2023/10/13 02:13:24;;;;;;;22.67;16.50;;;16.90;99.90;;;;;;5094848;28;20024;-68
2023/10/13 02:15:56;;;;;;;25.50;17.27;;;17.00;99.90;;;;;;5095672;28;20043;-68
2023/10/13 02:18:26;;;;;;;27.92;16.92;;;16.90;99.90;;;;;;5095313;28;20031;-68
2023/10/13 02:20:56;;;;;;;23.52;16.73;;;17.00;99.90;;;;;;5095046;28;20028;-68
2023/10/13 02:23:25;;;;;;;29.15;17.33;;;17.00;99.90;;;;;;5094880;28;20035;-68
2023/10/13 02:26:00;;;;;;;25.80;16.65;;;17.00;99.90;;;;;;5094824;28;20020;-68
2023/10/13 02:28:30;;;;;;;25.50;16.23;;;17.10;99.90;;;;;;5094859;28;20027;-68
2023/10/13 02:30:57;;;;;;;30.98;17.05;;;17.10;99.90;;;;;;5095389;28;20020;-68
2023/10/13 02:33:29;;;;;;;23.88;17.77;;;17.10;99.90;;;;;;5095119;28;20024;-68
2023/10/13 02:35:57;;;;;;;25.88;17.70;;;17.10;99.90;;;;;;5094042;28;20028;-72
2023/10/13 02:41:33;;;;;;;30.30;18.27;;;17.10;99.90;;;;;;5093630;27;20397;-68
2023/10/13 02:43:58;;;;;;;28.58;18.70;;;17.10;99.90;;;;;;5091754;28;20480;-69
2023/10/13 02:46:28;;;;;;;27.35;18.33;;;17.10;99.90;;;;;;5091750;28;20028;-69
2023/10/13 02:48:54;;;;;;;30.00;19.85;;;17.10;99.90;;;;;;5090763;28;20073;-68
2023/10/13 02:51:25;;;;;;;27.73;18.13;;;17.20;99.90;;;;;;5090828;28;20028;-75
2023/10/13 02:53:52;;;;;;;31.70;18.63;;;17.10;99.90;;;;;;5091591;28;20111;-68
2023/10/13 02:56:20;;;;;;;28.55;18.63;;;17.10;99.90;;;;;;5091160;28;20056;-69
2023/10/13 02:58:52;;;;;;;23.77;18.02;;;17.20;99.90;;;;;;5073136;28;20028;-69
2023/10/13 03:01:19;;;;;;;26.53;17.90;;;17.10;99.90;;;;;;5091118;28;20024;-68
2023/10/13 03:03:49;;;;;;;29.10;17.80;;;17.10;99.90;;;;;;5091336;28;20254;-68
2023/10/13 03:06:15;;;;;;;27.42;18.33;;;17.10;99.90;;;;;;5091396;28;20029;-68
2023/10/13 03:08:42;;;;;;;25.35;18.20;;;17.10;99.90;;;;;;5090771;28;20178;-68
2023/10/13 03:11:09;;;;;;;29.70;19.08;;;17.10;99.90;;;;;;5091309;28;20025;-68
2023/10/13 03:13:35;;;;;;;29.17;17.98;;;17.10;99.90;;;;;;5090987;28;20115;-68
2023/10/13 03:16:02;;;;;;;29.27;18.00;;;17.10;99.90;;;;;;5090724;28;20119;-69
2023/10/13 03:18:33;;;;;;;31.55;19.00;;;17.10;99.90;;;;;;5090683;28;20473;-68
2023/10/13 03:21:02;;;;;;;25.65;17.70;;;17.20;99.90;;;;;;5090757;28;20069;-68
2023/10/13 03:23:27;;;;;;;30.27;18.88;;;17.20;99.90;;;;;;5090407;28;20442;-68
2023/10/13 03:25:55;;;;;;;27.58;18.08;;;17.20;99.90;;;;;;5091014;28;20113;-68
2023/10/13 03:28:25;;;;;;;28.58;18.05;;;17.20;99.90;;;;;;5090622;28;20048;-68
2023/10/13 03:30:52;;;;;;;26.60;17.00;;;17.20;99.90;;;;;;5090882;28;20028;-69
2023/10/13 03:33:26;;;;;;;28.23;17.75;;;17.20;99.90;;;;;;5090808;28;20481;-68
2023/10/13 03:35:58;;;;;;;;;;;17.20;99.90;;;;;;5090921;28;20032;-68
2023/10/13 03:38:27;;;;;;;23.17;17.30;;;17.20;99.90;;;;;;5090694;28;20348;-68
2023/10/13 03:40:56;;;;;;;21.67;16.80;;;17.30;99.90;;;;;;5089560;28;20157;-69
2023/10/13 03:43:22;;;;;;;28.00;19.77;;;17.20;99.90;;;;;;5090098;28;20027;-69
2023/10/13 03:46:00;;;;;;;27.67;18.65;;;17.20;99.90;;;;;;5090175;28;20474;-69
2023/10/13 03:51:02;;;;;;;29.67;19.83;;;17.30;99.90;;;;;;5085560;28;20402;-68
2023/10/13 03:53:33;;;;;;;30.95;20.23;;;16.50;99.90;;;;;;5076347;28;20041;-69
2023/10/13 03:56:15;;;;;;;36.78;21.83;;;17.40;99.90;;;;;;5075617;28;20024;-68
2023/10/13 03:58:45;;;;;;;31.17;20.70;;;16.70;99.90;;;;;;5076867;28;20035;-69
2023/10/13 04:01:15;;;;;;;25.73;20.60;;;17.30;99.90;;;;;;5075959;28;20116;-69
2023/10/13 04:04:12;;;;;;;32.97;19.60;;;17.30;99.90;;;;;;5076630;28;20344;-69
2023/10/13 04:06:51;;;;;;;34.65;20.90;;;17.20;99.90;;;;;;5075605;28;20437;-69
2023/10/13 04:17:26;;;;;;;30.23;20.83;;;17.20;99.90;;;;;;5075398;28;20035;-68
2023/10/13 04:25:35;;;;;;;36.22;21.67;;;17.20;99.90;;;;;;5070562;28;20032;-71
2023/10/13 04:28:35;;;;;;;30.45;19.88;;;17.10;99.90;;;;;;5071256;28;20039;-69
2023/10/13 04:34:15;;;;;;;27.80;21.42;;;17.10;99.90;;;;;;5111954;27;20133;-68
2023/10/13 04:36:36;;;;;;;31.88;21.10;;;17.10;99.90;;;;;;5110992;28;20512;-68
2023/10/13 04:41:42;;;;;;;32.10;19.63;;;17.00;99.90;;;;;;5112010;27;20723;-67
2023/10/13 04:47:07;;;;;;;32.20;19.20;;;17.00;99.90;;;;;;5110983;28;20515;-68
2023/10/13 04:55:47;;;;;;;31.35;20.67;;;17.00;99.90;;;;;;5110777;28;20028;-68
2023/10/13 04:57:49;;;;;;;30.15;20.98;;;17.00;99.90;;;;;;5110671;28;20027;-68
2023/10/13 05:44:55;;;;;;;31.73;17.70;;;17.00;99.90;;;;;;5109880;28;20405;-68
2023/10/13 05:49:50;;;;;;;28.33;17.73;;;17.10;99.90;;;;;;5109770;28;20016;-68
2023/10/13 05:52:19;;;;;;;27.25;17.92;;;17.10;99.90;;;;;;5101169;27;20130;-68
2023/10/13 06:30:38;;;;;;;29.48;18.60;;;17.50;99.90;;;;;;5095195;28;20076;-67
2023/10/13 06:33:05;;;;;;;28.17;17.58;;;17.50;99.90;;;;;;5094805;28;20118;-67
2023/10/13 06:35:31;;;;;;;28.38;17.45;;;17.50;99.90;;;;;;5095718;28;20035;-67
2023/10/13 06:38:00;;;;;;;27.65;17.27;;;17.50;99.90;;;;;;5094963;28;20020;-67
2023/10/13 06:40:26;;;;;;;30.38;16.25;;;17.60;99.90;;;;;;5094514;28;20055;-67
2023/10/13 06:42:55;;;;;;;26.35;17.50;;;17.60;99.90;;;;;;5094726;28;20414;-67
2023/10/13 06:45:21;;;;;;;23.83;16.05;;;17.60;99.90;;;;;;5094706;28;20017;-68
2023/10/13 06:47:52;;;;;;;24.67;15.88;;;17.60;99.90;;;;;;5095336;28;20390;-67
2023/10/13 06:50:24;;;;;;;27.13;15.65;;;17.70;99.90;;;;;;5095194;28;20027;-67
2023/10/13 06:52:54;;;;;;;22.30;14.10;;;17.70;99.90;;;;;;5095732;28;20371;-68
2023/10/13 06:55:27;;;;;;;23.10;14.05;;;17.70;99.90;;;;;;5095412;28;20020;-69
2023/10/13 06:57:59;;;;;;;21.33;11.55;;;17.80;99.90;;;;;;5095690;28;20024;-68
2023/10/13 07:00:29;;;;;;;18.73;11.50;;;18.20;99.90;;;;;;5095170;28;20032;-69
2023/10/13 07:03:05;;;;;;;20.25;11.98;;;18.10;99.90;;;;;;5093091;28;20077;-69
2023/10/13 07:05:37;;;;;;;19.80;10.23;;;17.70;99.90;;;;;;5094455;28;20024;-69
2023/10/13 07:08:04;;;;;;;14.75;9.68;;;18.20;99.90;;;;;;5095208;28;20110;-69
2023/10/13 07:10:30;;;;;;;16.33;9.60;;;18.00;99.90;;;;;;5094709;28;20086;-69
2023/10/13 07:13:00;;;;;;;20.00;10.70;;;16.90;99.90;;;;;;5090308;28;20481;-70
2023/10/13 07:15:27;;;;;;;18.00;10.15;;;18.20;99.90;;;;;;5093641;28;20058;-69
2023/10/13 07:17:59;;;;;;;19.67;10.35;;;17.70;99.90;;;;;;5095263;28;20151;-69
2023/10/13 07:23:06;;;;;;;16.20;10.25;;;18.20;99.90;;;;;;5071266;28;20357;-68
2023/10/13 07:25:33;;;;;;;18.88;10.70;;;18.40;99.90;;;;;;5051054;28;20025;-68
2023/10/13 07:27:59;;;;;;;17.70;9.73;;;18.30;99.90;;;;;;5051119;28;20471;-68
2023/10/13 07:30:27;;;;;;;15.20;9.35;;;17.20;99.90;;;;;;5051162;28;20111;-68
2023/10/13 07:32:57;;;;;;;16.33;8.75;;;18.60;99.90;;;;;;5050333;28;20025;-68
2023/10/13 07:35:26;;;;;;;15.05;8.90;;;17.40;99.90;;;;;;5063111;28;20035;-68
2023/10/13 07:37:53;;;;;;;12.02;8.23;;;18.20;99.90;;;;;;5071241;28;20116;-68
2023/10/13 07:43:08;;;;;;;14.77;7.50;;;17.50;99.90;;;;;;5071410;28;20441;-69
2023/10/13 07:45:37;;;;;;;12.77;7.13;;;18.30;99.90;;;;;;5071481;28;20078;-68
2023/10/13 07:48:12;;;;;;;8.90;6.80;;;18.90;99.90;;;;;;5052817;28;20035;-69
2023/10/13 07:50:39;;;;;;;16.67;7.43;;;18.70;99.90;;;;;;5049059;28;20026;-68
2023/10/13 07:53:18;;;;;;;13.98;6.82;;;19.40;99.90;;;;;;5050206;28;20033;-68
2023/10/13 07:55:46;;;;;;;12.27;6.53;;;19.10;99.90;;;;;;5049872;28;20029;-69
2023/10/13 07:58:13;;;;;;;12.30;6.05;;;17.00;99.90;;;;;;5048866;28;20033;-68
2023/10/13 08:00:47;;;;;;;10.85;6.53;;;19.30;99.90;;;;;;5050825;28;20380;-68
2023/10/13 08:08:39;;;;;;;13.32;7.00;;;19.80;99.90;;;;;;5089912;28;20039;-69
2023/10/13 08:11:37;;;;;;;11.30;6.95;;;19.60;99.90;;;;;;5090074;28;20044;-69
2023/10/13 08:14:10;;;;;;;14.15;8.05;;;19.60;99.90;;;;;;5089936;28;20029;-69
2023/10/13 08:19:55;;;;;;;13.88;7.60;;;19.40;99.90;;;;;;5088761;28;20358;-69
2023/10/13 08:24:55;;;;;;;11.80;8.48;;;19.60;99.90;;;;;;5070207;28;20840;-68
2023/10/13 08:27:48;;;;;;;15.20;7.80;;;19.90;99.90;;;;;;5071364;28;20024;-69
2023/10/13 08:32:54;;;;;;;13.98;7.18;;;20.50;99.90;;;;;;5068769;28;20399;-69
2023/10/13 08:35:36;;;;;;;11.43;7.28;;;20.70;99.90;;;;;;5053469;28;20033;-69
2023/10/13 08:38:05;;;;;;;14.03;7.17;;;20.70;99.90;;;;;;5071034;28;20437;-69
2023/10/13 08:43:17;;;;;;;13.80;6.75;;;21.00;99.90;;;;;;5069944;28;20390;-69
2023/10/13 08:48:12;;;;;;;12.75;6.43;;;22.00;99.90;;;;;;5070662;28;20021;-69
2023/10/13 08:56:35;;;;;;;17.00;7.13;;;22.60;89.60;;;;;;5110101;28;20028;-69
2023/10/13 09:01:59;;;;;;;18.00;6.18;;;22.30;99.90;;;;;;5107774;28;20028;-70
2023/10/13 09:04:21;;;;;;;15.50;5.82;;;22.70;99.90;;;;;;5100900;28;20024;-70
2023/10/13 09:23:25;;;;;;;17.38;6.05;;;22.30;24.20;;;;;;5100492;27;20463;-70
2023/10/13 09:25:58;;;;;;;17.90;6.20;;;22.40;24.10;;;;;;5091382;28;20028;-69
2023/10/13 09:28:27;;;;;;;16.58;6.03;;;22.80;1.00;;;;;;5094380;28;20032;-69
2023/10/13 09:30:56;;;;;;;16.58;6.13;;;22.90;1.00;;;;;;5109980;28;20031;-70
2023/10/13 09:33:47;;;;;;;15.10;6.13;;;22.60;1.00;;;;;;5104317;28;20492;-69
2023/10/13 09:36:12;;;;;;;15.38;6.28;;;22.60;1.00;;;;;;5096152;28;20058;-71
2023/10/13 09:38:40;;;;;;;16.65;6.43;;;22.90;1.00;;;;;;5100582;28;20028;-72
2023/10/13 09:41:26;;;;;;;18.40;6.45;;;22.80;1.00;;;;;;5093346;28;20032;-69
2023/10/13 09:43:52;;;;;;;16.95;6.53;;;22.90;1.00;;;;;;5102251;28;20076;-70
2023/10/13 09:46:23;;;;;;;19.92;6.10;;;23.30;1.00;;;;;;5108438;28;20082;-70
2023/10/13 09:49:04;;;;;;;13.65;6.47;;;23.20;1.00;;;;;;5107982;28;20157;-70
2023/10/13 09:51:31;;;;;;;13.45;5.68;;;23.40;1.00;;;;;;5092929;28;20078;-70
2023/10/13 09:54:09;;;;;;;14.05;6.07;;;23.60;1.00;;;;;;5089866;28;20058;-71
2023/10/13 09:56:52;;;;;;;18.33;6.45;;;23.40;1.00;;;;;;5095158;28;20016;-71
2023/10/13 09:59:34;;;;;;;19.35;6.20;;;23.80;99.90;;;;;;5087443;28;20032;-70
2023/10/13 10:02:09;;;;;;;17.33;6.00;;;23.60;99.90;;;;;;5095380;28;20114;-70
2023/10/13 10:04:50;;;;;;;18.08;5.93;;;23.50;99.90;;;;;;5105353;28;20110;-70
2023/10/13 10:07:28;;;;;;;17.20;6.57;;;23.90;99.90;;;;;;5104296;28;20030;-71
2023/10/13 10:09:58;;;;;;;17.25;6.00;;;23.50;99.90;;;;;;5103871;28;20023;-70
2023/10/13 10:12:55;;;;;;;18.65;6.57;;;26.20;99.90;;;;;;5104889;28;20028;-70
2023/10/13 10:18:05;;;;;;;19.05;6.35;;;24.60;1.00;;;;;;5132457;27;20398;-71
2023/10/13 10:20:42;;;;;;;18.75;6.45;;;24.60;1.00;;;;;;5128110;28;20023;-70
2023/10/13 10:23:21;;;;;;;21.05;6.03;;;24.40;99.90;;;;;;5130749;28;20106;-71
2023/10/13 10:25:47;;;;;;;20.88;6.55;;;24.20;99.90;;;;;;5127980;28;20396;-71
2023/10/13 10:28:15;;;;;;;21.85;6.35;;;24.10;1.00;;;;;;5129560;28;20520;-71
2023/10/13 10:30:45;;;;;;;15.40;6.40;;;24.20;99.90;;;;;;5128695;28;20045;-73
2023/10/13 10:33:12;;;;;;;21.90;7.32;;;24.60;79.40;;;;;;5130270;28;20028;-70
2023/10/13 10:35:40;;;;;;;19.48;6.75;;;24.90;1.00;;;;;;5127346;28;20024;-72
2023/10/13 10:38:24;;;;;;;17.73;6.57;;;24.90;99.90;;;;;;5129811;28;20031;-71
2023/10/13 10:40:58;;;;;;;19.15;6.35;;;25.30;99.90;;;;;;5128414;28;20031;-70
2023/10/13 10:43:41;;;;;;;17.80;6.18;;;25.20;1.00;;;;;;5131255;28;20019;-71
2023/10/13 10:46:10;;;;;;;12.38;5.95;;;25.10;99.90;;;;;;5129436;28;20121;-73
2023/10/13 10:48:42;;;;;;;14.00;6.32;;;;;;;;;;5130256;28;20019;-71
2023/10/13 10:51:25;;;;;;;24.02;7.18;;;25.30;99.90;;;;;;5129356;28;20066;-71
2023/10/13 10:53:52;;;;;;;16.38;7.55;;;;;;;;;;5131201;28;20031;-75
2023/10/13 10:56:24;;;;;;;13.88;6.95;;;25.30;99.90;;;;;;5128733;27;20063;-71
2023/10/13 10:58:54;;;;;;;17.50;6.80;;;;;;;;;;5131784;28;20027;-73
2023/10/13 11:01:46;;;;;;;16.73;7.03;;;25.20;99.90;;;;;;5130077;28;20030;-71
2023/10/13 11:04:18;;;;;;;21.23;6.72;;;25.00;53.90;;;;;;5129942;28;20030;-71
2023/10/13 11:06:49;;;;;;;18.85;7.00;;;24.70;99.90;;;;;;5128818;28;20035;-71
2023/10/13 11:09:31;;;;;;;14.73;6.75;;;24.70;99.90;;;;;;5131327;28;20421;-70
2023/10/13 11:12:23;;;;;;;17.88;6.53;;;;;;;;;;5129112;28;20031;-71
2023/10/13 11:15:12;;;;;;;18.90;6.53;;;24.60;1.00;;;;;;5131113;28;20452;-70
2023/10/13 11:17:42;;;;;;;17.10;6.85;;;24.00;99.90;;;;;;5131812;27;20043;-70
2023/10/13 11:20:16;;;;;;;23.00;7.72;;;24.10;99.90;;;;;;5117184;28;20086;-70
2023/10/13 11:22:46;;;;;;;24.27;7.88;;;24.50;1.00;;;;;;5130098;28;20031;-71
2023/10/13 11:25:22;;;;;;;19.30;7.50;;;24.50;1.00;;;;;;5129864;28;20028;-71
2023/10/13 11:30:45;;;;;;;22.75;7.53;;;24.20;99.90;;;;;;5110693;27;20808;-70
2023/10/13 11:33:11;;;;;;;22.85;6.97;;;24.70;54.60;;;;;;5106583;28;20036;-70
2023/10/13 11:38:25;;;;;;;21.92;7.20;;;24.10;17.40;;;;;;5108441;28;20023;-70
2023/10/13 11:41:12;;;;;;;21.92;7.97;;;;;;;;;;5106661;28;20633;-70
2023/10/13 11:49:17;;;;;;;19.42;7.88;;;24.30;99.90;;;;;;5111276;28;20026;-71
2023/10/13 11:51:44;;;;;;;19.70;7.85;;;25.20;1.00;;;;;;5110244;28;20028;-71
2023/10/13 11:54:12;;;;;;;22.10;7.85;;;24.10;99.90;;;;;;5107273;28;20024;-71
2023/10/13 11:56:38;;;;;;;23.00;7.63;;;23.80;99.90;;;;;;5099802;28;20508;-71
2023/10/13 11:59:05;;;;;;;23.60;7.63;;;24.10;29.20;;;;;;5111831;28;20024;-70
2023/10/13 12:07:14;;;;;;;23.08;7.57;;;24.90;99.90;;;;;;5102903;28;20083;-71
2023/10/13 12:09:52;;;;;;;23.83;7.53;;;24.80;99.90;;;;;;5107904;28;20089;-71
2023/10/13 12:12:18;;;;;;;22.38;7.57;;;24.90;94.70;;;;;;5100503;28;20516;-71
2023/10/13 12:15:09;;;;;;;20.52;7.50;;;24.80;99.90;;;;;;5110879;28;20035;-71
2023/10/13 12:17:34;;;;;;;16.48;6.75;;;;;;;;;;5109858;28;20016;-71
2023/10/13 12:20:01;;;;;;;24.30;7.80;;;24.70;1.00;;;;;;5110132;28;20063;-71
2023/10/13 12:22:35;;;;;;;22.55;7.18;;;24.90;1.00;;;;;;5105893;28;20024;-71
2023/10/13 12:25:18;;;;;;;22.35;7.30;;;24.90;1.00;;;;;;5094323;27;20028;-71
2023/10/13 12:27:49;;;;;;;18.55;7.28;;;;;;;;;;5090356;28;20047;-71
2023/10/13 12:30:35;;;;;;;21.83;7.35;;;25.20;1.60;;;;;;5091461;28;20039;-71
2023/10/13 12:33:09;;;;;;;24.83;7.78;;;;;;;;;;5110297;28;20080;-71
2023/10/13 12:35:54;;;;;;;22.67;7.82;;;;;;;;;;5110957;28;20478;-71
2023/10/13 12:48:55;;;;;;;22.30;7.70;;;25.40;99.90;;;;;;5110744;28;20031;-71
2023/10/13 12:49:58;;;;;;;16.30;7.32;;;25.70;99.90;;;;;;5109788;28;20545;-70
2023/10/13 12:52:16;;;;;;;18.20;7.88;;;24.70;1.00;;;;;;5109758;28;20028;-70
2023/10/13 12:54:46;;;;;;;20.27;7.25;;;25.20;99.90;;;;;;5110869;28;20572;-71
2023/10/13 12:57:13;;;;;;;16.70;7.95;;;25.20;99.90;;;;;;5098912;28;20020;-71
2023/10/13 12:59:40;;;;;;;18.65;7.22;;;;;;;;;;5096820;28;20469;-70
2023/10/13 13:02:14;;;;;;;22.02;7.65;;;;;;;;;;5096729;28;20512;-71
2023/10/13 13:04:43;;;;;;;16.65;7.60;;;;;;;;;;5096524;28;20024;-71
2023/10/13 13:07:13;;;;;;;19.30;7.45;;;24.80;1.00;;;;;;5096588;28;20031;-70
2023/10/13 13:09:40;;;;;;;20.20;8.10;;;25.00;99.90;;;;;;5096257;28;20026;-70
2023/10/13 13:12:06;;;;;;;22.63;7.57;;;25.10;99.90;;;;;;5096505;28;20396;-71
2023/10/13 13:14:34;;;;;;;21.27;7.68;;;25.10;99.90;;;;;;5096866;28;20115;-70
2023/10/13 13:17:04;;;;;;;19.00;7.85;;;;;;;;;;5096537;28;20353;-71
2023/10/13 13:19:35;;;;;;;17.55;7.72;;;24.70;1.00;;;;;;5096534;28;20444;-71
2023/10/13 13:22:02;;;;;;;20.60;7.70;;;24.90;1.00;;;;;;5096451;28;20028;-71
2023/10/13 13:24:29;;;;;;;20.90;7.60;;;24.60;99.90;;;;;;5096256;28;20541;-70
2023/10/13 13:26:55;;;;;;;18.85;8.13;;;24.70;99.90;;;;;;5095861;28;20024;-71
2023/10/13 13:29:21;;;;;;;17.02;7.15;;;23.80;99.90;;;;;;5095763;28;20024;-73
2023/10/13 13:31:47;;;;;;;19.45;8.10;;;24.00;1.00;;;;;;5096107;28;20037;-71
2023/10/13 13:34:12;;;;;;;23.00;8.07;;;24.00;67.50;;;;;;5095960;28;20497;-71
2023/10/13 13:36:40;;;;;;;23.95;8.23;;;24.10;1.00;;;;;;5095782;28;20115;-70
2023/10/13 13:39:06;;;;;;;22.23;8.07;;;24.00;91.20;;;;;;5096014;28;20028;-69
2023/10/13 13:41:33;;;;;;;23.00;7.75;;;24.10;99.90;;;;;;5095814;28;20469;-71
2023/10/13 13:44:13;;;;;;;18.23;7.30;;;24.20;99.90;;;;;;5095719;28;20039;-71
2023/10/13 13:46:41;;;;;;;18.50;7.95;;;24.10;1.00;;;;;;5095681;28;20036;-70
2023/10/13 13:49:08;;;;;;;18.67;8.25;;;24.00;99.90;;;;;;5096180;28;20031;-71
2023/10/13 13:51:37;;;;;;;19.52;7.43;;;23.80;1.00;;;;;;5096098;28;20028;-71
2023/10/13 13:54:06;;;;;;;24.92;7.95;;;23.80;99.90;;;;;;5095669;28;20097;-71
2023/10/13 13:56:38;;;;;;;17.00;7.47;;;23.90;1.00;;;;;;5095791;28;20020;-71
2023/10/13 13:59:08;;;;;;;20.33;7.22;;;;;;;;;;5095344;28;20085;-71
2023/10/13 14:01:37;;;;;;;16.13;7.50;;;24.20;99.90;;;;;;5095591;28;20501;-70
2023/10/13 14:04:06;;;;;;;20.05;7.50;;;;;;;;;;5095694;28;20502;-70
2023/10/13 14:06:34;;;;;;;20.30;7.70;;;;;;;;;;5095373;28;20058;-71
2023/10/13 14:09:04;;;;;;;25.52;8.25;;;24.00;99.90;;;;;;5094164;28;20024;-71
2023/10/13 14:14:28;;;;;;;32.35;8.07;;;;;;;;;;5091472;28;20428;-71
2023/10/13 14:17:03;;;;;;;22.25;8.10;;;23.90;99.90;;;;;;5090814;28;20123;-71
2023/10/13 14:19:28;;;;;;;17.48;7.93;;;23.80;99.90;;;;;;5091693;28;20370;-71
2023/10/13 14:21:56;;;;;;;28.73;7.95;;;;;;;;;;5091292;28;20032;-71
2023/10/13 14:24:33;;;;;;;19.98;7.35;;;23.90;99.90;;;;;;5090278;28;20074;-71
2023/10/13 14:27:32;;;;;;;27.35;7.35;;;;;;;;;;5091483;28;20486;-71
2023/10/13 14:29:52;;;;;;;24.05;7.15;;;;;;;;;;5090297;28;20109;-71
2023/10/13 14:32:18;;;;;;;23.77;7.78;;;;;;;;;;5090808;28;20123;-72
2023/10/13 14:34:54;;;;;;;28.17;7.85;;;;;;;;;;5090992;28;20458;-71
2023/10/13 14:37:30;;;;;;;23.17;7.53;;;;;;;;;;5090982;28;20028;-72
2023/10/13 14:39:57;;;;;;;27.35;8.27;;;23.70;99.90;;;;;;5091042;28;20028;-71
2023/10/13 14:42:27;;;;;;;23.27;7.82;;;;;;;;;;5091176;28;20024;-72
2023/10/13 14:44:56;;;;;;;22.23;7.53;;;23.60;99.90;;;;;;5090923;28;20066;-71
2023/10/13 14:47:24;;;;;;;26.67;7.97;;;;;;;;;;5069980;28;20029;-72
2023/10/13 14:49:54;;;;;;;25.88;7.60;;;23.50;99.90;;;;;;5070579;28;20386;-72
2023/10/13 14:52:22;;;;;;;26.73;8.23;;;;;;;;;;5070061;28;20021;-72
2023/10/13 14:54:54;;;;;;;23.08;7.70;;;23.40;99.90;;;;;;5070788;28;20020;-71
2023/10/13 14:57:24;;;;;;;22.70;7.95;;;23.60;99.90;;;;;;5070738;28;20538;-72
2023/10/13 14:59:51;;;;;;;24.52;7.85;;;23.50;1.00;;;;;;5070460;28;20021;-72
2023/10/13 15:02:17;;;;;;;19.90;7.82;;;;;;;;;;5070341;28;20039;-72
2023/10/13 15:04:43;;;;;;;20.92;7.32;;;23.20;1.00;;;;;;5070269;28;20028;-72
2023/10/13 15:07:10;;;;;;;21.42;7.43;;;;;;;;;;5069337;28;20021;-74
2023/10/13 15:09:36;;;;;;;20.23;7.47;;;;;;;;;;5070457;28;20032;-73
2023/10/13 15:12:05;;;;;;;20.92;7.20;;;;;;;;;;5069877;28;20060;-72
2023/10/13 15:14:33;;;;;;;29.95;8.07;;;;;;;;;;5070039;28;20031;-71
2023/10/13 15:17:00;;;;;;;23.67;8.07;;;23.30;99.90;;;;;;5069971;28;20025;-72
2023/10/13 15:19:26;;;;;;;23.70;7.60;;;23.30;99.90;;;;;;5069891;28;20075;-72
2023/10/13 15:21:53;;;;;;;22.50;7.68;;;;;;;;;;5069922;28;20024;-72
2023/10/13 15:24:21;;;;;;;27.85;8.10;;;;;;;;;;5063749;28;20382;-72
2023/10/13 15:26:48;;;;;;;27.13;7.93;;;;;;;;;;5056340;28;20032;-70
2023/10/13 15:29:16;;;;;;;27.35;7.28;;;22.90;1.00;;;;;;5056547;28;20035;-71
2023/10/13 15:34:37;;;;;;;26.88;7.45;;;22.80;99.90;;;;;;5111946;27;20404;-70
2023/10/13 15:37:05;;;;;;;15.23;7.13;;;;;;;;;;5111042;28;20030;-70
2023/10/13 15:39:31;;;;;;;26.67;7.93;;;22.90;99.90;;;;;;5111733;28;20024;-70
2023/10/13 15:41:58;;;;;;;22.63;7.93;;;23.00;99.90;;;;;;5111624;28;20066;-70
2023/10/13 15:44:25;;;;;;;21.48;7.95;;;23.00;99.90;;;;;;5111632;28;20035;-70
2023/10/13 15:46:55;;;;;;;23.38;7.60;;;22.70;1.00;;;;;;5111902;28;20430;-70
2023/10/13 15:49:21;;;;;;;23.48;7.55;;;22.10;1.00;;;;;;5111888;28;20480;-70
2023/10/13 15:51:46;;;;;;;27.00;7.40;;;23.00;56.20;;;;;;5111513;28;20036;-72
2023/10/13 15:54:15;;;;;;;24.48;7.85;;;23.10;1.00;;;;;;5111474;28;20472;-70
2023/10/13 15:56:47;;;;;;;19.35;6.78;;;23.00;38.70;;;;;;5111201;28;20466;-71
2023/10/13 15:59:13;;;;;;;19.63;6.85;;;23.00;99.90;;;;;;5111385;28;20051;-70
2023/10/13 16:01:40;;;;;;;24.17;6.65;;;;;;;;;;5111417;28;20024;-71
2023/10/13 16:04:11;;;;;;;19.63;6.95;;;;;;;;;;5111540;28;20035;-70
2023/10/13 16:06:38;;;;;;;20.85;8.10;;;;;;;;;;5111293;28;20073;-71
2023/10/13 16:09:03;;;;;;;25.92;7.45;;;22.90;99.90;;;;;;5111138;28;20028;-70
2023/10/13 16:11:30;;;;;;;28.05;7.30;;;;;;;;;;5111100;28;20054;-70
2023/10/13 16:13:55;;;;;;;23.60;7.07;;;22.70;99.90;;;;;;5110675;28;20020;-71
2023/10/13 16:16:22;;;;;;;18.67;6.43;;;22.90;99.90;;;;;;5111074;28;20089;-70
2023/10/13 16:18:49;;;;;;;19.30;6.00;;;22.90;99.90;;;;;;5111028;28;20027;-71
2023/10/13 16:21:15;;;;;;;18.67;6.85;;;23.00;53.30;;;;;;5111040;28;20062;-73
2023/10/13 16:23:45;;;;;;;18.10;6.90;;;;;;;;;;5110882;28;20470;-70
2023/10/13 16:26:13;;;;;;;27.13;7.15;;;;;;;;;;5110721;28;20027;-70
2023/10/13 16:28:38;;;;;;;18.33;6.85;;;22.80;99.90;;;;;;5109858;28;20028;-70